Schulugsraum in Feldgeding (bis 6 Teilnehmer)

Schulugsraum in Gröbenzell (ab 5 Teilnehmer)

Flugwetter Augsburg

[source: ADDS]
METAR
EDMA 201120Z 03004KT 300V090 CAVOK 20/13 Q1016 =
TAF EDMA 201100Z 2012/2021 VRB03KT CAVOK
TAF
TAF EDMA 201100Z 2012/2021 VRB03KT CAVOK =
Cookies erleichtern die Bereitstellung unserer Dienste. Mit der Nutzung unserer Dienste erklären Sie sich damit einverstanden, dass wir Cookies verwenden.
Weitere Informationen Ok